Terminal Aerodrome Forecast
Issued by NWS

Home | Current Version | Previous Version | Text Only | Print | Product List | Glossary On
Versions: 1 2 3 4 5 6 7 8 9 10 11 12 13 14 15 16 17
000
FTUS46 KSTO 251400 AAA
TAFSAC
TAF AMD
KSAC 251459Z 2515/2612 20015KT 5SM -RA OVC040
      TEMPO 2515/2518 2SM -RA BR OVC018
     FM251800 18016G26KT P6SM VCSH BKN050
     FM260000 22009KT P6SM BKN080=

USA.gov is the U.S. government's official web portal to all federal, state and local government web resources and services.